sensor_id;sensor_type;location;lat;lon;timestamp;P1;durP1;ratioP1;P2;durP2;ratioP2
41739;SDS011;27422;52.444;13.300;2022-12-19T00:00:59;22.52;;;8.65;;
41739;SDS011;27422;52.444;13.300;2022-12-19T00:03:48;22.38;;;8.85;;
41739;SDS011;27422;52.444;13.300;2022-12-19T00:06:15;22.15;;;9.10;;
41739;SDS011;27422;52.444;13.300;2022-12-19T00:08:45;21.08;;;8.55;;
41739;SDS011;27422;52.444;13.300;2022-12-19T00:11:18;21.13;;;9.00;;
41739;SDS011;27422;52.444;13.300;2022-12-19T00:13:45;25.17;;;9.40;;
41739;SDS011;27422;52.444;13.300;2022-12-19T00:16:12;24.05;;;9.20;;
41739;SDS011;27422;52.444;13.300;2022-12-19T00:18:39;21.27;;;8.05;;
41739;SDS011;27422;52.444;13.300;2022-12-19T00:21:09;22.03;;;8.50;;
41739;SDS011;27422;52.444;13.300;2022-12-19T00:23:36;19.15;;;8.40;;
41739;SDS011;27422;52.444;13.300;2022-12-19T00:26:05;21.02;;;8.88;;
41739;SDS011;27422;52.444;13.300;2022-12-19T00:28:37;21.42;;;8.85;;
41739;SDS011;27422;52.444;13.300;2022-12-19T00:31:03;18.63;;;8.52;;
41739;SDS011;27422;52.444;13.300;2022-12-19T00:33:29;21.50;;;8.18;;
41739;SDS011;27422;52.444;13.300;2022-12-19T00:36:01;23.48;;;9.57;;
41739;SDS011;27422;52.444;13.300;2022-12-19T00:38:31;18.92;;;8.15;;
41739;SDS011;27422;52.444;13.300;2022-12-19T00:43:37;19.55;;;7.78;;
41739;SDS011;27422;52.444;13.300;2022-12-19T00:46:03;18.65;;;8.27;;
41739;SDS011;27422;52.444;13.300;2022-12-19T00:48:29;23.17;;;9.40;;
41739;SDS011;27422;52.444;13.300;2022-12-19T00:50:59;23.37;;;8.43;;
41739;SDS011;27422;52.444;13.300;2022-12-19T00:53:28;15.32;;;7.97;;
41739;SDS011;27422;52.444;13.300;2022-12-19T00:55:54;22.85;;;8.43;;
41739;SDS011;27422;52.444;13.300;2022-12-19T00:58:37;23.85;;;9.75;;
41739;SDS011;27422;52.444;13.300;2022-12-19T01:01:06;17.00;;;7.75;;
41739;SDS011;27422;52.444;13.300;2022-12-19T01:03:49;18.48;;;7.68;;
41739;SDS011;27422;52.444;13.300;2022-12-19T01:06:15;19.52;;;7.88;;
41739;SDS011;27422;52.444;13.300;2022-12-19T01:08:40;19.33;;;8.13;;
41739;SDS011;27422;52.444;13.300;2022-12-19T01:11:06;19.38;;;7.93;;
41739;SDS011;27422;52.444;13.300;2022-12-19T01:30:18;21.48;;;8.55;;
41739;SDS011;27422;52.444;13.300;2022-12-19T01:32:43;16.88;;;7.38;;
41739;SDS011;27422;52.444;13.300;2022-12-19T01:35:08;16.10;;;7.18;;
41739;SDS011;27422;52.444;13.300;2022-12-19T01:37:34;15.65;;;7.53;;
41739;SDS011;27422;52.444;13.300;2022-12-19T01:39:59;18.58;;;7.68;;
41739;SDS011;27422;52.444;13.300;2022-12-19T01:42:25;20.02;;;8.10;;
41739;SDS011;27422;52.444;13.300;2022-12-19T01:53:20;16.33;;;7.57;;
41739;SDS011;27422;52.444;13.300;2022-12-19T01:55:48;20.42;;;8.60;;
41739;SDS011;27422;52.444;13.300;2022-12-19T01:58:14;18.50;;;7.67;;
41739;SDS011;27422;52.444;13.300;2022-12-19T02:00:41;17.52;;;6.72;;
41739;SDS011;27422;52.444;13.300;2022-12-19T02:03:09;18.38;;;7.25;;
41739;SDS011;27422;52.444;13.300;2022-12-19T02:05:38;19.83;;;6.93;;
41739;SDS011;27422;52.444;13.300;2022-12-19T02:08:04;19.25;;;7.10;;
41739;SDS011;27422;52.444;13.300;2022-12-19T02:10:29;22.17;;;8.00;;
41739;SDS011;27422;52.444;13.300;2022-12-19T02:12:58;19.08;;;7.70;;
41739;SDS011;27422;52.444;13.300;2022-12-19T02:15:23;19.55;;;7.70;;
41739;SDS011;27422;52.444;13.300;2022-12-19T02:31:11;18.33;;;7.30;;
41739;SDS011;27422;52.444;13.300;2022-12-19T02:41:20;16.77;;;7.05;;
41739;SDS011;27422;52.444;13.300;2022-12-19T02:43:47;23.40;;;8.48;;
41739;SDS011;27422;52.444;13.300;2022-12-19T02:46:16;17.08;;;7.53;;
41739;SDS011;27422;52.444;13.300;2022-12-19T02:48:42;19.58;;;8.63;;
41739;SDS011;27422;52.444;13.300;2022-12-19T02:51:08;18.25;;;7.50;;
41739;SDS011;27422;52.444;13.300;2022-12-19T02:53:33;16.95;;;6.88;;
41739;SDS011;27422;52.444;13.300;2022-12-19T03:04:56;21.95;;;8.35;;
41739;SDS011;27422;52.444;13.300;2022-12-19T03:07:29;21.85;;;8.73;;
41739;SDS011;27422;52.444;13.300;2022-12-19T03:13:12;22.65;;;9.43;;
41739;SDS011;27422;52.444;13.300;2022-12-19T03:15:40;21.10;;;8.73;;
41739;SDS011;27422;52.444;13.300;2022-12-19T03:18:09;24.88;;;8.70;;
41739;SDS011;27422;52.444;13.300;2022-12-19T03:20:38;19.92;;;7.82;;
41739;SDS011;27422;52.444;13.300;2022-12-19T03:23:19;19.23;;;8.38;;
41739;SDS011;27422;52.444;13.300;2022-12-19T03:25:46;19.35;;;8.35;;
41739;SDS011;27422;52.444;13.300;2022-12-19T03:28:15;19.73;;;8.13;;
41739;SDS011;27422;52.444;13.300;2022-12-19T03:31:01;20.42;;;9.10;;
41739;SDS011;27422;52.444;13.300;2022-12-19T03:33:28;22.48;;;9.35;;
41739;SDS011;27422;52.444;13.300;2022-12-19T03:35:55;20.65;;;8.57;;
41739;SDS011;27422;52.444;13.300;2022-12-19T03:38:22;19.27;;;8.52;;
41739;SDS011;27422;52.444;13.300;2022-12-19T03:40:48;24.98;;;9.32;;
41739;SDS011;27422;52.444;13.300;2022-12-19T03:43:14;21.35;;;8.85;;
41739;SDS011;27422;52.444;13.300;2022-12-19T03:48:14;18.95;;;8.93;;
41739;SDS011;27422;52.444;13.300;2022-12-19T03:54:02;17.52;;;8.48;;
41739;SDS011;27422;52.444;13.300;2022-12-19T03:59:18;22.58;;;9.48;;
41739;SDS011;27422;52.444;13.300;2022-12-19T04:01:46;17.45;;;8.43;;
41739;SDS011;27422;52.444;13.300;2022-12-19T04:04:12;28.42;;;10.45;;
41739;SDS011;27422;52.444;13.300;2022-12-19T04:06:38;20.85;;;7.88;;
41739;SDS011;27422;52.444;13.300;2022-12-19T04:09:04;20.63;;;9.07;;
41739;SDS011;27422;52.444;13.300;2022-12-19T04:11:33;19.48;;;8.05;;
41739;SDS011;27422;52.444;13.300;2022-12-19T04:14:05;19.52;;;9.80;;
41739;SDS011;27422;52.444;13.300;2022-12-19T04:19:10;22.98;;;9.77;;
41739;SDS011;27422;52.444;13.300;2022-12-19T04:21:42;21.98;;;8.32;;
41739;SDS011;27422;52.444;13.300;2022-12-19T04:24:13;21.02;;;9.20;;
41739;SDS011;27422;52.444;13.300;2022-12-19T04:26:42;21.98;;;9.23;;
41739;SDS011;27422;52.444;13.300;2022-12-19T04:29:09;22.80;;;8.65;;
41739;SDS011;27422;52.444;13.300;2022-12-19T04:31:36;22.05;;;8.75;;
41739;SDS011;27422;52.444;13.300;2022-12-19T04:34:02;22.65;;;10.18;;
41739;SDS011;27422;52.444;13.300;2022-12-19T04:36:27;21.83;;;9.30;;
41739;SDS011;27422;52.444;13.300;2022-12-19T04:38:53;26.08;;;8.93;;
41739;SDS011;27422;52.444;13.300;2022-12-19T04:41:19;25.85;;;10.00;;
41739;SDS011;27422;52.444;13.300;2022-12-19T04:43:44;22.52;;;9.27;;
41739;SDS011;27422;52.444;13.300;2022-12-19T04:46:09;18.05;;;8.10;;
41739;SDS011;27422;52.444;13.300;2022-12-19T04:48:35;21.02;;;8.90;;
41739;SDS011;27422;52.444;13.300;2022-12-19T04:51:01;24.52;;;9.77;;
41739;SDS011;27422;52.444;13.300;2022-12-19T04:53:29;19.83;;;8.48;;
41739;SDS011;27422;52.444;13.300;2022-12-19T04:56:02;22.85;;;8.98;;
41739;SDS011;27422;52.444;13.300;2022-12-19T04:58:29;21.73;;;9.02;;
41739;SDS011;27422;52.444;13.300;2022-12-19T05:00:54;23.67;;;8.30;;
41739;SDS011;27422;52.444;13.300;2022-12-19T05:03:27;24.73;;;10.15;;
41739;SDS011;27422;52.444;13.300;2022-12-19T05:05:52;26.27;;;9.02;;
41739;SDS011;27422;52.444;13.300;2022-12-19T05:08:27;22.00;;;8.88;;
41739;SDS011;27422;52.444;13.300;2022-12-19T05:10:52;24.13;;;9.52;;
41739;SDS011;27422;52.444;13.300;2022-12-19T05:13:18;22.25;;;10.07;;
41739;SDS011;27422;52.444;13.300;2022-12-19T05:15:43;22.63;;;9.32;;
41739;SDS011;27422;52.444;13.300;2022-12-19T05:18:09;22.60;;;8.55;;
41739;SDS011;27422;52.444;13.300;2022-12-19T05:20:35;23.00;;;8.60;;
41739;SDS011;27422;52.444;13.300;2022-12-19T05:23:00;23.42;;;10.32;;
41739;SDS011;27422;52.444;13.300;2022-12-19T05:25:26;23.75;;;9.27;;
41739;SDS011;27422;52.444;13.300;2022-12-19T05:27:51;18.33;;;8.82;;
41739;SDS011;27422;52.444;13.300;2022-12-19T05:30:17;22.63;;;8.60;;
41739;SDS011;27422;52.444;13.300;2022-12-19T05:32:42;25.55;;;8.90;;
41739;SDS011;27422;52.444;13.300;2022-12-19T05:35:08;22.98;;;9.43;;
41739;SDS011;27422;52.444;13.300;2022-12-19T05:37:33;21.98;;;10.00;;
41739;SDS011;27422;52.444;13.300;2022-12-19T05:39:58;21.95;;;9.73;;
41739;SDS011;27422;52.444;13.300;2022-12-19T05:42:24;27.85;;;9.65;;
41739;SDS011;27422;52.444;13.300;2022-12-19T05:44:50;20.48;;;8.98;;
41739;SDS011;27422;52.444;13.300;2022-12-19T05:47:15;20.23;;;9.30;;
41739;SDS011;27422;52.444;13.300;2022-12-19T05:49:41;22.50;;;8.65;;
41739;SDS011;27422;52.444;13.300;2022-12-19T05:52:09;19.58;;;8.55;;
41739;SDS011;27422;52.444;13.300;2022-12-19T05:54:34;23.10;;;9.10;;
41739;SDS011;27422;52.444;13.300;2022-12-19T05:57:00;21.70;;;9.45;;
41739;SDS011;27422;52.444;13.300;2022-12-19T05:59:25;23.40;;;9.25;;
41739;SDS011;27422;52.444;13.300;2022-12-19T06:01:50;24.50;;;9.02;;
41739;SDS011;27422;52.444;13.300;2022-12-19T06:04:17;21.38;;;9.15;;
41739;SDS011;27422;52.444;13.300;2022-12-19T06:06:43;19.17;;;8.65;;
41739;SDS011;27422;52.444;13.300;2022-12-19T06:09:08;21.30;;;9.25;;
41739;SDS011;27422;52.444;13.300;2022-12-19T06:11:33;22.45;;;10.02;;
41739;SDS011;27422;52.444;13.300;2022-12-19T06:13:59;21.95;;;8.75;;
41739;SDS011;27422;52.444;13.300;2022-12-19T06:16:24;23.45;;;9.25;;
41739;SDS011;27422;52.444;13.300;2022-12-19T06:18:50;24.13;;;9.05;;
41739;SDS011;27422;52.444;13.300;2022-12-19T06:21:16;23.98;;;8.90;;
41739;SDS011;27422;52.444;13.300;2022-12-19T06:23:44;21.25;;;8.05;;
41739;SDS011;27422;52.444;13.300;2022-12-19T06:26:10;20.95;;;8.82;;
41739;SDS011;27422;52.444;13.300;2022-12-19T06:28:37;22.65;;;9.05;;
41739;SDS011;27422;52.444;13.300;2022-12-19T06:31:05;20.23;;;8.65;;
41739;SDS011;27422;52.444;13.300;2022-12-19T06:33:32;18.10;;;8.75;;
41739;SDS011;27422;52.444;13.300;2022-12-19T06:35:59;24.38;;;9.55;;
41739;SDS011;27422;52.444;13.300;2022-12-19T06:38:25;20.17;;;9.45;;
41739;SDS011;27422;52.444;13.300;2022-12-19T06:40:51;20.63;;;8.97;;
41739;SDS011;27422;52.444;13.300;2022-12-19T06:43:35;19.65;;;8.55;;
41739;SDS011;27422;52.444;13.300;2022-12-19T06:46:01;20.85;;;8.98;;
41739;SDS011;27422;52.444;13.300;2022-12-19T06:48:26;23.10;;;9.65;;
41739;SDS011;27422;52.444;13.300;2022-12-19T06:50:52;24.45;;;9.40;;
41739;SDS011;27422;52.444;13.300;2022-12-19T06:53:17;19.70;;;9.18;;
41739;SDS011;27422;52.444;13.300;2022-12-19T06:55:43;18.65;;;8.60;;
41739;SDS011;27422;52.444;13.300;2022-12-19T06:58:08;21.58;;;9.38;;
41739;SDS011;27422;52.444;13.300;2022-12-19T07:00:34;19.48;;;9.32;;
41739;SDS011;27422;52.444;13.300;2022-12-19T07:03:00;24.08;;;9.68;;
41739;SDS011;27422;52.444;13.300;2022-12-19T07:05:26;21.20;;;8.50;;
41739;SDS011;27422;52.444;13.300;2022-12-19T07:07:51;21.50;;;9.82;;
41739;SDS011;27422;52.444;13.300;2022-12-19T07:10:17;22.40;;;8.82;;
41739;SDS011;27422;52.444;13.300;2022-12-19T07:12:45;20.38;;;8.75;;
41739;SDS011;27422;52.444;13.300;2022-12-19T07:15:13;17.65;;;7.82;;
41739;SDS011;27422;52.444;13.300;2022-12-19T07:17:38;21.90;;;9.65;;
41739;SDS011;27422;52.444;13.300;2022-12-19T07:20:04;19.27;;;8.35;;
41739;SDS011;27422;52.444;13.300;2022-12-19T07:22:30;17.80;;;7.88;;
41739;SDS011;27422;52.444;13.300;2022-12-19T07:25:00;22.05;;;8.20;;
41739;SDS011;27422;52.444;13.300;2022-12-19T07:27:26;19.55;;;8.98;;
41739;SDS011;27422;52.444;13.300;2022-12-19T07:29:52;20.27;;;8.48;;
41739;SDS011;27422;52.444;13.300;2022-12-19T07:32:18;20.27;;;8.60;;
41739;SDS011;27422;52.444;13.300;2022-12-19T07:34:43;19.92;;;8.63;;
41739;SDS011;27422;52.444;13.300;2022-12-19T07:37:09;21.33;;;8.95;;
41739;SDS011;27422;52.444;13.300;2022-12-19T07:39:34;17.83;;;8.52;;
41739;SDS011;27422;52.444;13.300;2022-12-19T07:42:00;21.27;;;8.77;;
41739;SDS011;27422;52.444;13.300;2022-12-19T07:44:25;20.52;;;8.20;;
41739;SDS011;27422;52.444;13.300;2022-12-19T07:46:50;21.45;;;9.68;;
41739;SDS011;27422;52.444;13.300;2022-12-19T07:49:16;20.58;;;8.40;;
41739;SDS011;27422;52.444;13.300;2022-12-19T07:51:41;21.17;;;8.57;;
41739;SDS011;27422;52.444;13.300;2022-12-19T07:54:06;18.95;;;8.55;;
41739;SDS011;27422;52.444;13.300;2022-12-19T07:56:32;18.83;;;8.57;;
41739;SDS011;27422;52.444;13.300;2022-12-19T07:58:57;21.60;;;9.25;;
41739;SDS011;27422;52.444;13.300;2022-12-19T08:01:23;18.90;;;8.13;;
41739;SDS011;27422;52.444;13.300;2022-12-19T08:03:48;22.75;;;9.98;;
41739;SDS011;27422;52.444;13.300;2022-12-19T08:06:13;20.85;;;9.50;;
41739;SDS011;27422;52.444;13.300;2022-12-19T08:08:39;18.27;;;8.18;;
41739;SDS011;27422;52.444;13.300;2022-12-19T08:11:06;18.65;;;8.82;;
41739;SDS011;27422;52.444;13.300;2022-12-19T08:13:31;19.48;;;7.80;;
41739;SDS011;27422;52.444;13.300;2022-12-19T08:15:58;22.88;;;9.13;;
41739;SDS011;27422;52.444;13.300;2022-12-19T08:18:24;20.38;;;7.75;;
41739;SDS011;27422;52.444;13.300;2022-12-19T08:20:50;17.77;;;7.53;;
41739;SDS011;27422;52.444;13.300;2022-12-19T08:23:15;18.42;;;7.43;;
41739;SDS011;27422;52.444;13.300;2022-12-19T08:25:41;20.50;;;8.63;;
41739;SDS011;27422;52.444;13.300;2022-12-19T08:28:06;20.67;;;8.52;;
41739;SDS011;27422;52.444;13.300;2022-12-19T08:30:32;20.55;;;9.15;;
41739;SDS011;27422;52.444;13.300;2022-12-19T08:32:57;18.83;;;8.73;;
41739;SDS011;27422;52.444;13.300;2022-12-19T08:35:22;18.13;;;8.13;;
41739;SDS011;27422;52.444;13.300;2022-12-19T08:37:48;18.17;;;7.68;;
41739;SDS011;27422;52.444;13.300;2022-12-19T08:40:13;24.40;;;9.38;;
41739;SDS011;27422;52.444;13.300;2022-12-19T08:42:41;19.98;;;9.40;;
41739;SDS011;27422;52.444;13.300;2022-12-19T08:45:07;20.33;;;7.53;;
41739;SDS011;27422;52.444;13.300;2022-12-19T08:47:32;18.95;;;8.43;;
41739;SDS011;27422;52.444;13.300;2022-12-19T08:49:58;20.67;;;7.88;;
41739;SDS011;27422;52.444;13.300;2022-12-19T08:52:26;16.85;;;8.18;;
41739;SDS011;27422;52.444;13.300;2022-12-19T08:54:52;17.27;;;7.28;;
41739;SDS011;27422;52.444;13.300;2022-12-19T08:57:17;18.58;;;8.65;;
41739;SDS011;27422;52.444;13.300;2022-12-19T08:59:42;19.08;;;7.82;;
41739;SDS011;27422;52.444;13.300;2022-12-19T09:02:15;19.48;;;8.30;;
41739;SDS011;27422;52.444;13.300;2022-12-19T09:04:41;18.13;;;8.00;;
41739;SDS011;27422;52.444;13.300;2022-12-19T09:07:06;19.98;;;8.73;;
41739;SDS011;27422;52.444;13.300;2022-12-19T09:09:32;17.60;;;7.60;;
41739;SDS011;27422;52.444;13.300;2022-12-19T09:11:58;20.48;;;8.27;;
41739;SDS011;27422;52.444;13.300;2022-12-19T09:14:23;20.60;;;7.75;;
41739;SDS011;27422;52.444;13.300;2022-12-19T09:16:49;18.98;;;7.80;;
41739;SDS011;27422;52.444;13.300;2022-12-19T09:19:14;23.75;;;8.18;;
41739;SDS011;27422;52.444;13.300;2022-12-19T09:21:43;21.25;;;8.43;;
41739;SDS011;27422;52.444;13.300;2022-12-19T09:24:08;16.40;;;7.68;;
41739;SDS011;27422;52.444;13.300;2022-12-19T09:26:34;20.73;;;8.82;;
41739;SDS011;27422;52.444;13.300;2022-12-19T09:29:02;18.35;;;7.78;;
41739;SDS011;27422;52.444;13.300;2022-12-19T09:31:28;17.58;;;7.85;;
41739;SDS011;27422;52.444;13.300;2022-12-19T09:33:54;18.73;;;8.00;;
41739;SDS011;27422;52.444;13.300;2022-12-19T09:36:20;19.85;;;8.68;;
41739;SDS011;27422;52.444;13.300;2022-12-19T09:38:47;18.80;;;8.02;;
41739;SDS011;27422;52.444;13.300;2022-12-19T09:46:58;18.30;;;7.45;;
41739;SDS011;27422;52.444;13.300;2022-12-19T09:49:31;20.05;;;7.78;;
41739;SDS011;27422;52.444;13.300;2022-12-19T10:00:38;16.85;;;7.43;;
41739;SDS011;27422;52.444;13.300;2022-12-19T10:08:31;18.45;;;7.93;;
41739;SDS011;27422;52.444;13.300;2022-12-19T10:11:06;18.70;;;7.90;;
41739;SDS011;27422;52.444;13.300;2022-12-19T10:19:17;16.67;;;7.55;;
41739;SDS011;27422;52.444;13.300;2022-12-19T10:22:12;18.40;;;7.68;;
41739;SDS011;27422;52.444;13.300;2022-12-19T10:35:13;20.33;;;8.13;;
41739;SDS011;27422;52.444;13.300;2022-12-19T10:37:45;17.95;;;7.78;;
41739;SDS011;27422;52.444;13.300;2022-12-19T10:40:29;15.55;;;7.55;;
41739;SDS011;27422;52.444;13.300;2022-12-19T10:42:59;15.40;;;7.43;;
41739;SDS011;27422;52.444;13.300;2022-12-19T10:45:33;17.88;;;8.10;;
41739;SDS011;27422;52.444;13.300;2022-12-19T10:48:02;20.42;;;7.65;;
41739;SDS011;27422;52.444;13.300;2022-12-19T10:50:29;17.25;;;7.38;;
41739;SDS011;27422;52.444;13.300;2022-12-19T10:55:40;18.23;;;8.07;;
41739;SDS011;27422;52.444;13.300;2022-12-19T10:58:35;17.08;;;7.63;;
41739;SDS011;27422;52.444;13.300;2022-12-19T11:03:34;17.77;;;7.30;;
41739;SDS011;27422;52.444;13.300;2022-12-19T11:06:01;16.23;;;7.55;;
41739;SDS011;27422;52.444;13.300;2022-12-19T11:08:34;15.75;;;7.05;;
41739;SDS011;27422;52.444;13.300;2022-12-19T11:15:55;17.88;;;7.05;;
41739;SDS011;27422;52.444;13.300;2022-12-19T11:18:21;16.92;;;7.40;;
41739;SDS011;27422;52.444;13.300;2022-12-19T11:20:55;18.92;;;8.50;;
41739;SDS011;27422;52.444;13.300;2022-12-19T11:23:23;16.63;;;8.10;;
41739;SDS011;27422;52.444;13.300;2022-12-19T11:25:56;16.70;;;7.53;;
41739;SDS011;27422;52.444;13.300;2022-12-19T11:28:24;16.67;;;7.47;;
41739;SDS011;27422;52.444;13.300;2022-12-19T11:30:54;17.27;;;7.53;;
41739;SDS011;27422;52.444;13.300;2022-12-19T11:33:27;17.10;;;7.63;;
41739;SDS011;27422;52.444;13.300;2022-12-19T11:35:54;17.58;;;7.65;;
41739;SDS011;27422;52.444;13.300;2022-12-19T11:41:01;20.27;;;7.68;;
41739;SDS011;27422;52.444;13.300;2022-12-19T11:46:28;21.50;;;7.90;;
41739;SDS011;27422;52.444;13.300;2022-12-19T11:54:35;17.83;;;7.60;;
41739;SDS011;27422;52.444;13.300;2022-12-19T11:57:15;16.45;;;7.05;;
41739;SDS011;27422;52.444;13.300;2022-12-19T11:59:41;20.25;;;7.63;;
41739;SDS011;27422;52.444;13.300;2022-12-19T12:07:55;18.70;;;7.93;;
41739;SDS011;27422;52.444;13.300;2022-12-19T12:10:26;17.65;;;7.82;;
41739;SDS011;27422;52.444;13.300;2022-12-19T12:12:58;19.60;;;8.40;;
41739;SDS011;27422;52.444;13.300;2022-12-19T12:18:43;17.98;;;7.50;;
41739;SDS011;27422;52.444;13.300;2022-12-19T12:21:23;18.63;;;7.93;;
41739;SDS011;27422;52.444;13.300;2022-12-19T12:24:11;18.40;;;8.50;;
41739;SDS011;27422;52.444;13.300;2022-12-19T12:32:21;20.63;;;9.23;;
41739;SDS011;27422;52.444;13.300;2022-12-19T12:35:26;18.73;;;8.30;;
41739;SDS011;27422;52.444;13.300;2022-12-19T12:46:19;20.73;;;8.43;;
41739;SDS011;27422;52.444;13.300;2022-12-19T12:49:03;19.52;;;8.98;;
41739;SDS011;27422;52.444;13.300;2022-12-19T12:51:30;18.33;;;8.00;;
41739;SDS011;27422;52.444;13.300;2022-12-19T12:54:03;18.70;;;8.48;;
41739;SDS011;27422;52.444;13.300;2022-12-19T12:56:31;23.20;;;9.68;;
41739;SDS011;27422;52.444;13.300;2022-12-19T13:01:35;23.25;;;9.75;;
41739;SDS011;27422;52.444;13.300;2022-12-19T13:04:53;21.77;;;9.02;;
41739;SDS011;27422;52.444;13.300;2022-12-19T13:07:03;20.45;;;9.07;;
41739;SDS011;27422;52.444;13.300;2022-12-19T13:09:29;25.52;;;10.30;;
41739;SDS011;27422;52.444;13.300;2022-12-19T13:14:44;22.35;;;9.65;;
41739;SDS011;27422;52.444;13.300;2022-12-19T13:17:12;23.15;;;9.05;;
41739;SDS011;27422;52.444;13.300;2022-12-19T13:24:55;23.60;;;10.15;;
41739;SDS011;27422;52.444;13.300;2022-12-19T13:48:57;22.83;;;9.73;;
41739;SDS011;27422;52.444;13.300;2022-12-19T13:51:27;23.70;;;10.20;;
41739;SDS011;27422;52.444;13.300;2022-12-19T13:53:53;25.48;;;10.57;;
41739;SDS011;27422;52.444;13.300;2022-12-19T13:56:18;26.85;;;10.35;;
41739;SDS011;27422;52.444;13.300;2022-12-19T13:59:00;28.88;;;11.65;;
41739;SDS011;27422;52.444;13.300;2022-12-19T14:01:30;24.98;;;10.68;;
41739;SDS011;27422;52.444;13.300;2022-12-19T14:03:58;20.70;;;9.73;;
41739;SDS011;27422;52.444;13.300;2022-12-19T14:06:30;24.50;;;9.85;;
41739;SDS011;27422;52.444;13.300;2022-12-19T14:09:06;22.50;;;10.40;;
41739;SDS011;27422;52.444;13.300;2022-12-19T14:11:35;23.67;;;10.73;;
41739;SDS011;27422;52.444;13.300;2022-12-19T14:14:05;26.30;;;10.52;;
41739;SDS011;27422;52.444;13.300;2022-12-19T14:17:07;24.60;;;10.18;;
41739;SDS011;27422;52.444;13.300;2022-12-19T14:19:37;27.50;;;10.48;;
41739;SDS011;27422;52.444;13.300;2022-12-19T14:22:18;27.80;;;10.70;;
41739;SDS011;27422;52.444;13.300;2022-12-19T14:24:52;25.23;;;10.23;;
41739;SDS011;27422;52.444;13.300;2022-12-19T14:27:17;25.92;;;11.70;;
41739;SDS011;27422;52.444;13.300;2022-12-19T14:29:48;24.48;;;11.25;;
41739;SDS011;27422;52.444;13.300;2022-12-19T14:32:19;26.23;;;10.95;;
41739;SDS011;27422;52.444;13.300;2022-12-19T14:34:46;27.88;;;12.07;;
41739;SDS011;27422;52.444;13.300;2022-12-19T14:37:32;27.30;;;11.45;;
41739;SDS011;27422;52.444;13.300;2022-12-19T14:40:37;26.02;;;11.00;;
41739;SDS011;27422;52.444;13.300;2022-12-19T14:43:00;26.35;;;11.23;;
41739;SDS011;27422;52.444;13.300;2022-12-19T14:45:45;24.73;;;11.82;;
41739;SDS011;27422;52.444;13.300;2022-12-19T14:51:01;26.92;;;11.43;;
41739;SDS011;27422;52.444;13.300;2022-12-19T14:53:28;26.90;;;11.38;;
41739;SDS011;27422;52.444;13.300;2022-12-19T14:56:03;28.77;;;10.77;;
41739;SDS011;27422;52.444;13.300;2022-12-19T14:58:33;30.30;;;11.38;;
41739;SDS011;27422;52.444;13.300;2022-12-19T15:01:00;30.35;;;12.45;;
41739;SDS011;27422;52.444;13.300;2022-12-19T15:03:27;25.50;;;11.85;;
41739;SDS011;27422;52.444;13.300;2022-12-19T15:06:02;27.38;;;11.77;;
41739;SDS011;27422;52.444;13.300;2022-12-19T15:08:31;30.40;;;13.15;;
41739;SDS011;27422;52.444;13.300;2022-12-19T15:13:56;22.20;;;10.80;;
41739;SDS011;27422;52.444;13.300;2022-12-19T15:16:27;28.77;;;11.85;;
41739;SDS011;27422;52.444;13.300;2022-12-19T15:18:55;30.20;;;12.15;;
41739;SDS011;27422;52.444;13.300;2022-12-19T15:21:21;24.85;;;11.60;;
41739;SDS011;27422;52.444;13.300;2022-12-19T15:23:47;26.20;;;11.60;;
41739;SDS011;27422;52.444;13.300;2022-12-19T15:26:14;29.67;;;12.23;;
41739;SDS011;27422;52.444;13.300;2022-12-19T15:31:27;31.38;;;12.55;;
41739;SDS011;27422;52.444;13.300;2022-12-19T15:33:57;29.15;;;11.60;;
41739;SDS011;27422;52.444;13.300;2022-12-19T15:36:25;31.95;;;13.82;;
41739;SDS011;27422;52.444;13.300;2022-12-19T15:38:50;30.05;;;13.70;;
41739;SDS011;27422;52.444;13.300;2022-12-19T15:41:19;27.13;;;11.02;;
41739;SDS011;27422;52.444;13.300;2022-12-19T15:43:46;30.23;;;11.80;;
41739;SDS011;27422;52.444;13.300;2022-12-19T15:46:12;26.90;;;12.80;;
41739;SDS011;27422;52.444;13.300;2022-12-19T15:48:39;31.38;;;11.98;;
41739;SDS011;27422;52.444;13.300;2022-12-19T15:51:10;27.25;;;11.73;;
41739;SDS011;27422;52.444;13.300;2022-12-19T15:53:37;34.10;;;12.52;;
41739;SDS011;27422;52.444;13.300;2022-12-19T15:56:03;28.02;;;12.10;;
41739;SDS011;27422;52.444;13.300;2022-12-19T15:58:28;28.73;;;11.93;;
41739;SDS011;27422;52.444;13.300;2022-12-19T16:01:03;29.23;;;11.63;;
41739;SDS011;27422;52.444;13.300;2022-12-19T16:03:28;29.23;;;11.55;;
41739;SDS011;27422;52.444;13.300;2022-12-19T16:05:54;33.95;;;12.70;;
41739;SDS011;27422;52.444;13.300;2022-12-19T16:08:23;31.00;;;12.60;;
41739;SDS011;27422;52.444;13.300;2022-12-19T16:10:52;29.20;;;12.25;;
41739;SDS011;27422;52.444;13.300;2022-12-19T16:13:20;24.85;;;11.77;;
41739;SDS011;27422;52.444;13.300;2022-12-19T16:15:47;31.38;;;13.25;;
41739;SDS011;27422;52.444;13.300;2022-12-19T16:18:13;28.90;;;12.48;;
41739;SDS011;27422;52.444;13.300;2022-12-19T16:20:39;26.25;;;12.00;;
41739;SDS011;27422;52.444;13.300;2022-12-19T16:23:06;32.60;;;13.90;;
41739;SDS011;27422;52.444;13.300;2022-12-19T16:25:39;25.30;;;11.60;;
41739;SDS011;27422;52.444;13.300;2022-12-19T16:28:41;30.50;;;11.93;;
41739;SDS011;27422;52.444;13.300;2022-12-19T16:31:12;29.67;;;13.55;;
41739;SDS011;27422;52.444;13.300;2022-12-19T16:36:03;27.83;;;11.57;;
41739;SDS011;27422;52.444;13.300;2022-12-19T16:38:28;31.50;;;13.23;;
41739;SDS011;27422;52.444;13.300;2022-12-19T16:40:54;30.00;;;12.80;;
41739;SDS011;27422;52.444;13.300;2022-12-19T16:43:27;29.60;;;12.85;;
41739;SDS011;27422;52.444;13.300;2022-12-19T16:45:55;29.02;;;12.32;;
41739;SDS011;27422;52.444;13.300;2022-12-19T16:48:22;31.00;;;12.77;;
41739;SDS011;27422;52.444;13.300;2022-12-19T16:50:49;28.23;;;12.23;;
41739;SDS011;27422;52.444;13.300;2022-12-19T16:53:15;27.58;;;12.93;;
41739;SDS011;27422;52.444;13.300;2022-12-19T16:55:41;28.45;;;12.25;;
41739;SDS011;27422;52.444;13.300;2022-12-19T16:58:08;29.98;;;12.05;;
41739;SDS011;27422;52.444;13.300;2022-12-19T17:00:44;32.88;;;12.75;;
41739;SDS011;27422;52.444;13.300;2022-12-19T17:06:16;28.70;;;12.25;;
41739;SDS011;27422;52.444;13.300;2022-12-19T17:08:43;28.15;;;12.48;;
41739;SDS011;27422;52.444;13.300;2022-12-19T17:11:16;30.83;;;13.38;;
41739;SDS011;27422;52.444;13.300;2022-12-19T17:13:42;32.28;;;12.60;;
41739;SDS011;27422;52.444;13.300;2022-12-19T17:16:09;25.90;;;12.80;;
41739;SDS011;27422;52.444;13.300;2022-12-19T17:18:37;31.90;;;12.65;;
41739;SDS011;27422;52.444;13.300;2022-12-19T17:21:04;27.48;;;12.73;;
41739;SDS011;27422;52.444;13.300;2022-12-19T17:23:29;29.77;;;12.55;;
41739;SDS011;27422;52.444;13.300;2022-12-19T17:25:56;32.28;;;13.57;;
41739;SDS011;27422;52.444;13.300;2022-12-19T17:28:23;29.67;;;12.70;;
41739;SDS011;27422;52.444;13.300;2022-12-19T17:30:50;34.65;;;12.75;;
41739;SDS011;27422;52.444;13.300;2022-12-19T17:35:42;29.90;;;12.55;;
41739;SDS011;27422;52.444;13.300;2022-12-19T17:38:11;28.83;;;12.35;;
41739;SDS011;27422;52.444;13.300;2022-12-19T17:40:37;34.42;;;13.82;;
41739;SDS011;27422;52.444;13.300;2022-12-19T17:43:03;28.83;;;13.80;;
41739;SDS011;27422;52.444;13.300;2022-12-19T17:45:29;28.05;;;12.75;;
41739;SDS011;27422;52.444;13.300;2022-12-19T17:47:55;35.03;;;14.80;;